Time;durP1;ratioP1;P1;durP2;ratioP2;P2;SDS_P1;SDS_P2;PMS_P1;PMS_P2;Temp;Humidity;BMP_temperature;BMP_pressure;BME280_temperature;BME280_humidity;BME280_pressure;Samples;Min_cycle;Max_cycle;Signal;HPM_P1;HPM_P2
2023/10/19 00:00:55;;;;;;;10.60;5.80;;;;;;;7.14;100.00;100854.85;109650;1250;74040;-75
2023/10/19 00:03:24;;;;;;;10.20;6.30;;;;;;;7.13;100.00;100850.52;109642;1250;63099;-75
2023/10/19 00:05:51;;;;;;;8.50;6.00;;;;;;;7.12;100.00;100846.91;109637;1250;71499;-74
2023/10/19 00:08:22;;;;;;;9.10;5.80;;;;;;;7.11;100.00;100840.88;109635;1250;59563;-75
2023/10/19 00:11:08;;;;;;;10.00;7.10;;;;;;;7.09;100.00;100842.17;109635;1250;58363;-75
2023/10/19 00:13:37;;;;;;;9.40;6.90;;;;;;;7.07;100.00;100843.47;109851;1250;72705;-74
2023/10/19 00:16:22;;;;;;;13.10;6.30;;;;;;;7.06;100.00;100844.38;109870;1250;61448;-74
2023/10/19 00:18:52;;;;;;;9.20;5.90;;;;;;;7.04;100.00;100843.73;109622;1250;71417;-73
2023/10/19 00:21:28;;;;;;;11.00;6.20;;;;;;;7.04;100.00;100838.88;109606;1250;60986;-75
2023/10/19 00:23:57;;;;;;;6.90;5.70;;;;;;;7.03;100.00;100838.05;109643;1250;60006;-75
2023/10/19 00:26:26;;;;;;;9.20;6.30;;;;;;;7.03;100.00;100830.73;109708;1250;72159;-74
2023/10/19 00:28:56;;;;;;;9.40;7.00;;;;;;;7.04;100.00;100831.75;109653;1250;62951;-75
2023/10/19 00:31:24;;;;;;;7.50;5.70;;;;;;;7.04;100.00;100829.65;109633;1250;72757;-75
2023/10/19 00:33:54;;;;;;;8.20;6.30;;;;;;;7.06;100.00;100831.17;109605;1251;59580;-75
2023/10/19 00:36:22;;;;;;;9.40;5.60;;;;;;;7.07;100.00;100829.91;109609;1250;58082;-74
2023/10/19 00:38:52;;;;;;;7.00;5.70;;;;;;;7.08;100.00;100828.66;109609;1250;72523;-74
2023/10/19 00:41:29;;;;;;;8.50;5.30;;;;;;;7.06;100.00;100824.52;109622;1249;62506;-75
2023/10/19 00:44:03;;;;;;;7.80;6.20;;;;;;;7.07;100.00;100819.81;109584;1249;72762;-74
2023/10/19 00:46:42;;;;;;;7.60;6.00;;;;;;;7.06;100.00;100818.27;109622;1250;60870;-74
2023/10/19 00:49:15;;;;;;;7.80;6.80;;;;;;;7.03;100.00;100818.75;109631;1250;61869;-75
2023/10/19 00:54:35;;;;;;;7.10;5.70;;;;;;;6.94;100.00;100818.09;109650;1250;62751;-75
2023/10/19 00:57:10;;;;;;;9.60;6.40;;;;;;;6.90;100.00;100820.19;109474;1250;72786;-75
2023/10/19 00:59:43;;;;;;;8.60;6.40;;;;;;;6.88;100.00;100827.07;109624;1250;59800;-75
2023/10/19 01:02:21;;;;;;;9.20;5.90;;;;;;;6.86;100.00;100826.25;109681;1250;60085;-75
2023/10/19 01:05:00;;;;;;;8.30;6.40;;;;;;;6.85;100.00;100827.34;109645;1250;73836;-74
2023/10/19 01:07:29;;;;;;;9.00;6.50;;;;;;;6.82;100.00;100822.40;109642;1250;63792;-74
2023/10/19 01:10:36;;;;;;;10.00;7.10;;;;;;;6.79;100.00;100824.28;109615;1250;71796;-75
2023/10/19 01:12:59;;;;;;;12.70;8.10;;;;;;;6.74;100.00;100819.97;109554;1252;59362;-74
2023/10/19 01:15:29;;;;;;;9.90;7.60;;;;;;;6.68;100.00;100819.68;109675;1250;60107;-75
2023/10/19 01:17:57;;;;;;;10.80;7.30;;;;;;;6.62;100.00;100825.49;109674;1250;72639;-75
2023/10/19 01:28:25;;;;;;;9.90;7.60;;;;;;;6.44;100.00;100832.45;109608;1250;58834;-75
2023/10/19 01:30:53;;;;;;;11.90;7.60;;;;;;;6.41;100.00;100834.66;109688;1250;73960;-74
2023/10/19 01:33:24;;;;;;;13.00;8.00;;;;;;;6.38;100.00;100840.15;109749;1249;63545;-74
2023/10/19 01:36:42;;;;;;;9.00;7.20;;;;;;;6.35;100.00;100841.30;109682;1250;71447;-76
2023/10/19 01:38:39;;;;;;;9.70;7.20;;;;;;;6.32;100.00;100842.84;109513;1251;58882;-74
2023/10/19 01:41:13;;;;;;;15.10;8.10;;;;;;;6.28;100.00;100842.63;109655;1250;60051;-74
2023/10/19 01:43:42;;;;;;;10.00;7.60;;;;;;;6.26;100.00;100842.35;109596;1250;72622;-74
2023/10/19 01:46:13;;;;;;;13.70;7.90;;;;;;;6.24;100.00;100840.85;109595;1250;63633;-75
2023/10/19 01:48:42;;;;;;;10.50;7.40;;;;;;;6.22;100.00;100841.65;109641;1250;72616;-74
2023/10/19 01:51:10;;;;;;;10.50;7.60;;;;;;;6.20;100.00;100842.59;109636;1250;61971;-74
2023/10/19 01:53:43;;;;;;;11.10;7.90;;;;;;;6.19;100.00;100836.21;109655;1250;58794;-75
2023/10/19 01:56:14;;;;;;;16.10;12.70;;;;;;;6.18;100.00;100835.20;109645;1250;73910;-73
2023/10/19 01:58:44;;;;;;;15.40;9.80;;;;;;;6.20;100.00;100837.70;109570;1252;63606;-75
2023/10/19 02:03:42;;;;;;;12.10;8.10;;;;;;;6.27;100.00;100836.08;109708;1250;59614;-75
2023/10/19 02:06:16;;;;;;;10.00;7.50;;;;;;;6.29;100.00;100837.38;109638;1250;58818;-74
2023/10/19 02:08:56;;;;;;;16.10;8.10;;;;;;;6.31;100.00;100835.41;109623;1250;74126;-75
2023/10/19 02:11:24;;;;;;;11.80;8.10;;;;;;;6.31;100.00;100834.34;109676;1250;62731;-74
2023/10/19 02:13:59;;;;;;;9.40;7.50;;;;;;;6.31;100.00;100832.80;109663;1250;71777;-75
2023/10/19 02:16:29;;;;;;;11.50;7.60;;;;;;;6.31;100.00;100837.98;109606;1251;60483;-74
2023/10/19 02:18:57;;;;;;;12.20;9.00;;;;;;;6.31;100.00;100839.73;109635;1250;58812;-74
2023/10/19 02:21:32;;;;;;;10.80;7.30;;;;;;;6.31;100.00;100841.31;109604;1250;73824;-75
2023/10/19 02:23:59;;;;;;;;;;;;;;;6.30;100.00;100838.73;109668;1250;63520;-75
2023/10/19 02:26:27;;;;;;;12.30;7.00;;;;;;;6.29;100.00;100837.76;109642;1250;72629;-75
2023/10/19 02:28:56;;;;;;;10.70;7.60;;;;;;;6.26;100.00;100842.02;109593;1250;59791;-75
2023/10/19 02:31:27;;;;;;;13.40;7.80;;;;;;;6.24;100.00;100840.17;109698;1252;58760;-74
2023/10/19 02:34:00;;;;;;;15.10;8.20;;;;;;;6.22;100.00;100837.48;109659;1250;73946;-74
2023/10/19 02:36:31;;;;;;;12.90;9.10;;;;;;;6.20;100.00;100837.19;109658;1250;62813;-74
2023/10/19 02:39:07;;;;;;;12.40;9.40;;;;;;;6.19;100.00;100831.87;109859;1250;72614;-73
2023/10/19 02:41:41;;;;;;;12.20;7.70;;;;;;;6.16;100.00;100838.95;109757;1251;59661;-74
2023/10/19 02:46:45;;;;;;;11.40;8.30;;;;;;;6.11;100.00;100840.67;109886;1250;73996;-73
2023/10/19 02:49:15;;;;;;;12.10;8.50;;;;;;;6.09;100.00;100841.80;109902;1250;62278;-74
2023/10/19 02:51:45;;;;;;;12.20;7.90;;;;;;;6.07;100.00;100841.54;109876;1250;71247;-74
2023/10/19 02:54:19;;;;;;;10.70;8.00;;;;;;;6.04;100.00;100836.26;109798;1250;59682;-72
2023/10/19 02:56:49;;;;;;;11.40;8.30;;;;;;;6.01;100.00;100836.17;109802;1250;58828;-73
2023/10/19 02:59:21;;;;;;;11.70;8.30;;;;;;;5.98;100.00;100834.38;109973;1250;72518;-75
2023/10/19 03:02:01;;;;;;;13.00;9.00;;;;;;;5.97;100.00;100832.88;109866;1250;62311;-73
2023/10/19 03:04:29;;;;;;;10.50;8.30;;;;;;;5.95;100.00;100833.80;109723;1250;71389;-75
2023/10/19 03:06:57;;;;;;;9.00;7.50;;;;;;;5.94;100.00;100839.20;109797;1251;58617;-74
2023/10/19 03:11:55;;;;;;;12.70;7.70;;;;;;;5.92;100.00;100834.94;109820;1249;76143;-74
2023/10/19 03:14:25;;;;;;;8.40;7.00;;;;;;;5.90;100.00;100833.08;109746;1250;62255;-75
2023/10/19 03:16:56;;;;;;;11.40;8.20;;;;;;;5.89;100.00;100838.19;109685;1250;71591;-75
2023/10/19 03:19:25;;;;;;;10.10;7.70;;;;;;;5.86;100.00;100837.05;109800;1250;59655;-75
2023/10/19 03:21:55;;;;;;;13.40;7.80;;;;;;;5.85;100.00;100837.64;109792;1250;60097;-74
2023/10/19 03:24:23;;;;;;;13.90;8.30;;;;;;;5.82;100.00;100838.77;109771;1250;73771;-74
2023/10/19 03:26:51;;;;;;;11.20;8.20;;;;;;;5.79;100.00;100840.77;109741;1250;62729;-73
2023/10/19 03:29:22;;;;;;;13.40;9.00;;;;;;;5.77;100.00;100839.83;109601;1250;72947;-74
2023/10/19 03:31:50;;;;;;;13.90;8.40;;;;;;;5.74;100.00;100835.75;109693;1250;59981;-75
2023/10/19 03:34:19;;;;;;;10.70;7.20;;;;;;;5.71;100.00;100835.16;109620;1250;60034;-74
2023/10/19 03:36:48;;;;;;;12.60;7.60;;;;;;;5.69;100.00;100835.61;109679;1250;73920;-74
2023/10/19 03:39:17;;;;;;;11.50;8.10;;;;;;;5.67;100.00;100834.10;109678;1250;62428;-75
2023/10/19 03:41:49;;;;;;;11.10;8.10;;;;;;;5.65;100.00;100836.80;109636;1250;72658;-75
2023/10/19 03:44:23;;;;;;;13.00;8.60;;;;;;;5.62;100.00;100834.80;109620;1251;59706;-75
2023/10/19 03:46:57;;;;;;;11.70;7.60;;;;;;;5.60;100.00;100836.62;109602;1250;60157;-74
2023/10/19 03:49:33;;;;;;;9.70;8.30;;;;;;;5.57;100.00;100836.72;109681;1250;72660;-74
2023/10/19 03:54:41;;;;;;;10.70;8.00;;;;;;;5.51;100.00;100841.43;109601;1250;71596;-75
2023/10/19 03:57:22;;;;;;;12.20;8.10;;;;;;;5.48;100.00;100838.44;109641;1251;60433;-74
2023/10/19 03:59:55;;;;;;;12.40;8.20;;;;;;;5.45;100.00;100836.48;109594;1250;59123;-75
2023/10/19 04:02:28;;;;;;;12.80;8.40;;;;;;;5.42;100.00;100836.91;109630;1250;76018;-74
2023/10/19 04:04:57;;;;;;;13.10;9.00;;;;;;;5.42;100.00;100839.01;109665;1250;63881;-74
2023/10/19 04:07:25;;;;;;;17.70;9.60;;;;;;;5.40;100.00;100841.83;109629;1251;72622;-74
2023/10/19 04:12:38;;;;;;;15.80;10.10;;;;;;;5.39;100.00;100844.44;109610;1250;60564;-75
2023/10/19 04:15:16;;;;;;;14.30;10.00;;;;;;;5.39;100.00;100847.59;109662;1250;72576;-75
2023/10/19 04:17:48;;;;;;;14.00;9.20;;;;;;;5.39;100.00;100847.43;109669;1250;63675;-73
2023/10/19 04:22:45;;;;;;;13.60;9.20;;;;;;;5.39;100.00;100854.70;109595;1250;59819;-75
2023/10/19 04:25:18;;;;;;;13.00;9.60;;;;;;;5.38;100.00;100858.71;109618;1250;58756;-75
2023/10/19 04:27:46;;;;;;;12.70;9.90;;;;;;;5.39;100.00;100863.70;109641;1250;73885;-75
2023/10/19 04:30:33;;;;;;;13.00;9.50;;;;;;;5.39;100.00;100868.05;109646;1250;62582;-73
2023/10/19 04:33:01;;;;;;;12.00;9.30;;;;;;;5.41;100.00;100867.81;109619;1250;70743;-75
2023/10/19 04:35:30;;;;;;;12.30;9.10;;;;;;;5.43;100.00;100862.89;109480;1251;227953;-74
2023/10/19 04:39:30;;;;;;;15.90;9.80;;;;;;;5.49;100.00;100860.61;102549;1292;601872;-78
2023/10/19 04:42:00;;;;;;;12.90;11.10;;;;;;;5.49;100.00;100860.59;104969;1268;61269;-73
2023/10/19 04:44:27;;;;;;;18.20;11.30;;;;;;;5.51;100.00;100866.07;105214;1267;60610;-73
2023/10/19 04:46:55;;;;;;;16.50;11.20;;;;;;;5.53;100.00;100870.33;105352;1263;74549;-77
2023/10/19 04:49:22;;;;;;;13.90;10.60;;;;;;;5.53;100.00;100867.03;105619;1262;63770;-74
2023/10/19 04:51:49;;;;;;;14.60;10.60;;;;;;;5.55;100.00;100873.90;105199;1262;220588;-77
2023/10/19 04:54:17;;;;;;;18.60;11.40;;;;;;;5.57;100.00;100876.27;105631;1259;62540;-76
2023/10/19 04:56:44;;;;;;;15.50;10.00;;;;;;;5.60;100.00;100876.14;105547;1256;60437;-77
2023/10/19 04:59:10;;;;;;;12.30;10.00;;;;;;;5.63;100.00;100883.52;105630;1256;72061;-77
2023/10/19 05:01:38;;;;;;;14.00;10.60;;;;;;;5.65;100.00;100885.35;105567;1256;63922;-79
2023/10/19 05:04:05;;;;;;;16.20;11.50;;;;;;;5.67;100.00;100882.88;105610;1259;71352;-77
2023/10/19 05:06:32;;;;;;;13.60;10.90;;;;;;;5.68;100.00;100885.59;105499;1259;61296;-75
2023/10/19 05:08:59;;;;;;;15.90;11.20;;;;;;;5.70;100.00;100894.55;105642;1254;60303;-77
2023/10/19 05:11:27;;;;;;;18.90;12.10;;;;;;;5.70;100.00;100892.46;105580;1259;73115;-76
2023/10/19 05:13:54;;;;;;;15.50;11.40;;;;;;;5.72;100.00;100895.35;106401;1254;63884;-76
2023/10/19 05:16:21;;;;;;;15.90;11.30;;;;;;;5.75;100.00;100899.40;105942;1251;72792;-76
2023/10/19 05:18:48;;;;;;;15.20;11.20;;;;;;;5.79;100.00;100903.60;106065;1251;59779;-77
2023/10/19 05:21:15;;;;;;;19.00;13.70;;;;;;;5.83;100.00;100906.75;105775;1251;60176;-76
2023/10/19 05:23:44;;;;;;;18.00;11.80;;;;;;;5.92;100.00;100905.41;105853;1255;73014;-76
2023/10/19 05:26:12;;;;;;;17.70;12.10;;;;;;;6.06;100.00;100913.09;105767;1251;63864;-77
2023/10/19 05:28:39;;;;;;;17.80;11.60;;;;;;;6.20;100.00;100909.95;105975;1254;72780;-76
2023/10/19 05:31:06;;;;;;;16.80;11.60;;;;;;;6.41;100.00;100915.77;105837;1251;59938;-75
2023/10/19 05:33:33;;;;;;;16.70;10.80;;;;;;;6.66;100.00;100913.77;105841;1251;60189;-75
2023/10/19 05:36:01;;;;;;;15.10;12.20;;;;;;;7.01;100.00;100910.44;105786;1253;73038;-76
2023/10/19 05:38:28;;;;;;;18.50;11.60;;;;;;;7.60;100.00;100910.94;105850;1254;63719;-74
2023/10/19 05:40:57;;;;;;;18.70;10.70;;;;;;;8.44;100.00;100914.73;105879;1251;72690;-76
2023/10/19 05:43:28;;;;;;;13.20;10.60;;;;;;;9.36;100.00;100916.75;105900;1254;61187;-75
2023/10/19 05:45:56;;;;;;;13.30;10.00;;;;;;;10.28;100.00;100924.39;106077;1254;60367;-76
2023/10/19 05:48:24;;;;;;;14.40;10.60;;;;;;;11.14;100.00;100923.87;105802;1251;73024;-74
2023/10/19 05:50:51;;;;;;;12.40;8.60;;;;;;;11.97;100.00;100922.48;105982;1251;64148;-76
2023/10/19 05:53:18;;;;;;;12.40;10.30;;;;;;;12.70;100.00;100925.64;105831;1251;72682;-76
2023/10/19 05:55:46;;;;;;;14.00;10.50;;;;;;;13.36;99.42;100923.28;105977;1255;62014;-76
2023/10/19 05:58:13;;;;;;;14.70;9.50;;;;;;;14.01;93.90;100922.95;105995;1251;60362;-75
2023/10/19 06:00:40;;;;;;;13.00;10.20;;;;;;;14.60;85.86;100924.02;105928;1251;72964;-78
2023/10/19 06:03:07;;;;;;;13.40;9.80;;;;;;;15.12;78.12;100923.62;106075;1254;64003;-77
2023/10/19 06:05:34;;;;;;;10.90;9.70;;;;;;;15.61;71.31;100923.65;105857;1256;72653;-74
2023/10/19 06:08:01;;;;;;;13.00;10.00;;;;;;;16.05;65.48;100921.88;105855;1255;60343;-76
2023/10/19 06:10:28;;;;;;;12.10;9.30;;;;;;;16.39;61.31;100925.02;105817;1250;60296;-77
2023/10/19 06:12:55;;;;;;;10.80;9.00;;;;;;;16.67;58.49;100926.27;105818;1255;72917;-76
2023/10/19 06:15:24;;;;;;;11.00;9.70;;;;;;;16.93;56.20;100928.08;105758;1257;63886;-76
2023/10/19 06:17:52;;;;;;;12.10;9.40;;;;;;;17.16;54.00;100927.63;105871;1255;72733;-77
2023/10/19 06:20:26;;;;;;;12.30;9.50;;;;;;;17.05;52.63;100929.23;105928;1255;59731;-74
2023/10/19 06:22:55;;;;;;;11.10;9.80;;;;;;;16.64;52.66;100930.21;105907;1251;59621;-74
2023/10/19 06:25:24;;;;;;;14.00;10.70;;;;;;;16.20;53.99;100929.33;105963;1256;72108;-79
2023/10/19 06:27:51;;;;;;;11.50;10.10;;;;;;;15.73;55.64;100928.73;105885;1256;63971;-77
2023/10/19 06:30:18;;;;;;;11.30;8.90;;;;;;;15.16;57.54;100935.77;105882;1251;70956;-77
2023/10/19 06:32:47;;;;;;;13.70;9.90;;;;;;;14.64;60.84;100937.65;105870;1256;60415;-76
2023/10/19 06:35:14;;;;;;;12.30;10.70;;;;;;;14.22;64.55;100934.64;105866;1251;59778;-77
2023/10/19 06:37:41;;;;;;;15.20;10.20;;;;;;;13.85;68.19;100933.70;105840;1253;72952;-75
2023/10/19 06:40:10;;;;;;;18.10;10.90;;;;;;;13.46;71.76;100930.88;105849;1254;63962;-75
2023/10/19 06:42:38;;;;;;;17.80;10.70;;;;;;;13.06;75.97;100932.48;105946;1251;72700;-75
2023/10/19 06:45:07;;;;;;;18.70;11.00;;;;;;;12.73;80.36;100925.65;106064;1255;60104;-75
2023/10/19 06:47:37;;;;;;;16.70;10.70;;;;;;;12.51;83.80;100925.25;106081;1251;60224;-75
2023/10/19 06:50:09;;;;;;;11.60;9.60;;;;;;;12.37;86.56;100924.58;105979;1251;73099;-77
2023/10/19 06:52:38;;;;;;;13.20;10.60;;;;;;;12.22;88.43;100926.00;105921;1251;62955;-78
2023/10/19 06:55:07;;;;;;;14.00;10.30;;;;;;;12.07;89.94;100933.08;105987;1256;72715;-76
2023/10/19 06:57:34;;;;;;;14.20;10.40;;;;;;;11.93;91.23;100933.61;105917;1256;60137;-76
2023/10/19 07:00:10;;;;;;;13.00;10.00;;;;;;;11.82;92.53;100932.48;105835;1251;59642;-74
2023/10/19 07:02:38;;;;;;;12.20;9.60;;;;;;;11.73;93.72;100931.11;105894;1251;73157;-73
2023/10/19 07:05:05;;;;;;;17.00;9.90;;;;;;;11.62;94.45;100934.14;105939;1256;64041;-77
2023/10/19 07:07:33;;;;;;;16.40;10.60;;;;;;;11.54;95.33;100932.21;105887;1256;72517;-76
2023/10/19 07:10:00;;;;;;;14.30;10.60;;;;;;;11.50;96.33;100930.02;105880;1253;59621;-75
2023/10/19 07:12:30;;;;;;;17.40;11.00;;;;;;;11.47;96.88;100928.27;105908;1253;60091;-73
2023/10/19 07:15:00;;;;;;;15.30;11.40;;;;;;;11.44;97.51;100931.77;105834;1252;73251;-76
2023/10/19 07:17:28;;;;;;;15.50;10.90;;;;;;;11.41;97.82;100928.89;105881;1256;63928;-76
2023/10/19 07:19:57;;;;;;;16.00;10.50;;;;;;;11.39;97.92;100921.34;105863;1256;70552;-74
2023/10/19 07:22:24;;;;;;;19.90;10.90;;;;;;;11.35;98.43;100921.94;105896;1256;60352;-76
2023/10/19 07:24:52;;;;;;;15.80;10.00;;;;;;;11.31;98.41;100925.84;105814;1250;60266;-75
2023/10/19 07:27:19;;;;;;;18.00;10.10;;;;;;;11.25;98.33;100923.39;105852;1251;72908;-75
2023/10/19 07:30:09;;;;;;;;;;;;;;;11.21;98.61;100924.48;105911;1254;64036;-75
2023/10/19 07:32:38;;;;;;;17.10;10.00;;;;;;;11.20;99.18;100921.02;105902;1255;73421;-74
2023/10/19 07:35:06;;;;;;;16.20;11.20;;;;;;;11.21;99.37;100923.27;105797;1255;60380;-73
2023/10/19 07:37:33;;;;;;;14.00;9.50;;;;;;;11.23;99.40;100922.31;105917;1251;60380;-75
2023/10/19 07:39:59;;;;;;;11.60;9.50;;;;;;;11.25;99.24;100924.46;105777;1254;72148;-73
2023/10/19 07:42:27;;;;;;;17.70;9.60;;;;;;;11.36;99.65;100921.85;105679;1256;63872;-75
2023/10/19 07:44:54;;;;;;;12.00;8.80;;;;;;;11.78;99.96;100925.92;105935;1254;72631;-76
2023/10/19 07:47:21;;;;;;;12.10;9.80;;;;;;;12.54;98.53;100927.02;105960;1256;60334;-76
2023/10/19 07:49:51;;;;;;;13.90;9.60;;;;;;;13.46;93.96;100924.20;106357;1251;60308;-77
2023/10/19 07:52:18;;;;;;;9.50;8.20;;;;;;;14.46;85.81;100926.98;105889;1251;73070;-76
2023/10/19 07:54:46;;;;;;;11.30;7.20;;;;;;;15.43;74.55;100923.59;106037;1255;63852;-76
2023/10/19 07:57:13;;;;;;;9.50;8.00;;;;;;;16.33;65.49;100922.09;105882;1256;72922;-75
2023/10/19 07:59:40;;;;;;;10.50;8.30;;;;;;;17.18;59.41;100922.27;106006;1255;60406;-76
2023/10/19 08:02:08;;;;;;;13.00;8.10;;;;;;;17.99;54.68;100923.25;105999;1251;59619;-78
2023/10/19 08:04:36;;;;;;;12.10;7.50;;;;;;;18.73;50.89;100926.54;105953;1253;73080;-74
2023/10/19 08:07:03;;;;;;;9.00;6.90;;;;;;;19.42;47.79;100922.38;105932;1254;63762;-76
2023/10/19 08:09:35;;;;;;;8.30;6.40;;;;;;;20.03;43.01;100921.82;105838;1256;72657;-77
2023/10/19 08:12:05;;;;;;;10.90;6.40;;;;;;;20.49;41.00;100920.31;105907;1255;60357;-76
2023/10/19 08:14:32;;;;;;;7.70;6.40;;;;;;;20.86;39.71;100922.41;106006;1254;60420;-77
2023/10/19 08:16:59;;;;;;;8.70;6.40;;;;;;;21.10;38.78;100926.06;105977;1250;71864;-78
2023/10/19 08:19:27;;;;;;;11.30;6.30;;;;;;;21.41;38.36;100925.77;105961;1254;63732;-75
2023/10/19 08:21:54;;;;;;;9.10;5.90;;;;;;;21.79;37.43;100925.92;106167;1254;72667;-73
2023/10/19 08:24:23;;;;;;;8.80;5.70;;;;;;;22.15;36.74;100926.80;106476;1254;60095;-77
2023/10/19 08:26:50;;;;;;;13.40;7.50;;;;;;;22.52;36.02;100922.98;105886;1250;60343;-76
2023/10/19 08:29:19;;;;;;;8.80;6.70;;;;;;;22.85;35.31;100920.55;106106;1250;73158;-78
2023/10/19 08:31:46;;;;;;;9.40;5.20;;;;;;;23.18;34.24;100916.82;106021;1255;64197;-76
2023/10/19 08:34:13;;;;;;;8.10;5.60;;;;;;;23.40;33.18;100921.31;105969;1252;70684;-75
2023/10/19 08:36:40;;;;;;;5.50;4.80;;;;;;;23.45;32.95;100917.63;105855;1256;59729;-76
2023/10/19 08:39:08;;;;;;;23.30;17.10;;;;;;;23.42;32.69;100916.12;105960;1255;60340;-76
2023/10/19 08:41:36;;;;;;;7.60;4.80;;;;;;;23.34;32.79;100914.89;106002;1255;72322;-77
2023/10/19 08:44:15;;;;;;;5.80;5.20;;;;;;;23.31;32.66;100918.57;106123;1251;63075;-75
2023/10/19 08:46:45;;;;;;;6.70;5.20;;;;;;;23.34;32.70;100916.77;105930;1252;73707;-78
2023/10/19 08:49:12;;;;;;;7.50;5.30;;;;;;;23.42;32.32;100912.73;105863;1255;60632;-78
2023/10/19 08:51:39;;;;;;;5.30;4.80;;;;;;;23.46;32.40;100904.10;105929;1250;60471;-76
2023/10/19 08:54:06;;;;;;;9.50;5.10;;;;;;;23.62;31.96;100907.45;105918;1251;73959;-74
2023/10/19 08:56:33;;;;;;;7.80;4.50;;;;;;;23.86;31.59;100898.45;106043;1254;64280;-78
2023/10/19 08:59:01;;;;;;;5.00;4.50;;;;;;;24.08;31.29;100890.54;105941;1250;72446;-76
2023/10/19 09:01:28;;;;;;;6.90;5.10;;;;;;;24.27;30.99;100887.58;105851;1254;61397;-77
2023/10/19 09:03:58;;;;;;;6.60;4.50;;;;;;;24.44;30.90;100889.87;105927;1250;60451;-76
2023/10/19 09:06:25;;;;;;;6.70;4.40;;;;;;;24.67;30.47;100891.06;105834;1250;73657;-78
2023/10/19 09:08:53;;;;;;;8.40;5.00;;;;;;;24.80;29.83;100887.19;105958;1255;63883;-76
2023/10/19 09:11:20;;;;;;;12.70;10.00;;;;;;;24.89;29.99;100891.73;105736;1250;72851;-77
2023/10/19 09:13:48;;;;;;;5.90;5.00;;;;;;;25.15;30.08;100888.09;105838;1256;60497;-80
2023/10/19 09:16:16;;;;;;;9.10;6.50;;;;;;;25.49;29.79;100884.10;105906;1256;60517;-76
2023/10/19 09:18:44;;;;;;;11.30;4.70;;;;;;;25.85;29.57;100880.36;105804;1256;72993;-77
2023/10/19 09:21:25;;;;;;;9.70;4.40;;;;;;;26.09;28.81;100879.22;105888;1254;64023;-76
2023/10/19 09:23:54;;;;;;;3.90;3.50;;;;;;;26.15;28.43;100878.63;105721;1250;72641;-77
2023/10/19 09:26:22;;;;;;;5.70;3.80;;;;;;;26.23;28.19;100877.48;105835;1254;60457;-77
2023/10/19 09:28:50;;;;;;;6.30;3.40;;;;;;;26.39;28.09;100871.41;105946;1250;60565;-77
2023/10/19 09:31:18;;;;;;;11.40;6.10;;;;;;;26.52;27.58;100873.02;105966;1254;72964;-78
2023/10/19 09:33:47;;;;;;;7.30;5.90;;;;;;;26.53;27.15;100865.61;106038;1254;65216;-76
2023/10/19 09:36:16;;;;;;;5.10;4.10;;;;;;;26.45;27.25;100859.15;105760;1253;73678;-79
2023/10/19 09:38:51;;;;;;;3.40;3.10;;;;;;;26.40;27.36;100851.41;105783;1256;60447;-75
2023/10/19 09:41:22;;;;;;;3.90;3.20;;;;;;;26.41;27.38;100853.40;105978;1256;60457;-77
2023/10/19 09:43:49;;;;;;;4.10;3.50;;;;;;;26.51;27.06;100849.29;105647;1257;72653;-77
2023/10/19 09:46:25;;;;;;;5.60;3.50;;;;;;;26.63;26.72;100843.39;105681;1256;64648;-76
2023/10/19 09:48:52;;;;;;;4.50;3.50;;;;;;;26.70;26.35;100837.63;105972;1255;72173;-76
2023/10/19 09:51:19;;;;;;;8.00;5.30;;;;;;;26.74;26.48;100827.05;105613;1258;60694;-77
2023/10/19 09:53:53;;;;;;;6.20;5.60;;;;;;;26.75;26.41;100825.17;105668;1253;60528;-77
2023/10/19 09:56:29;;;;;;;6.40;5.50;;;;;;;26.73;26.32;100827.63;105685;1253;74065;-77
2023/10/19 09:59:02;;;;;;;5.50;3.40;;;;;;;26.75;26.13;100827.73;105700;1255;63133;-76
2023/10/19 10:01:54;;;;;;;4.40;2.90;;;;;;;26.68;25.65;100822.58;105730;1253;72960;-77
2023/10/19 10:04:30;;;;;;;5.70;3.40;;;;;;;26.58;25.66;100816.05;105789;1257;61312;-75
2023/10/19 10:06:59;;;;;;;5.20;3.40;;;;;;;26.48;25.69;100815.04;105842;1252;60527;-77
2023/10/19 10:09:26;;;;;;;3.40;3.10;;;;;;;26.48;25.78;100813.30;105863;1253;74087;-75
2023/10/19 10:11:52;;;;;;;5.70;4.10;;;;;;;26.49;26.17;100807.84;105726;1255;63320;-77
2023/10/19 10:14:25;;;;;;;4.10;3.60;;;;;;;26.60;26.16;100809.09;105709;1256;74312;-75
2023/10/19 10:17:02;;;;;;;4.60;3.30;;;;;;;26.76;25.86;100806.09;105656;1253;61125;-78
2023/10/19 10:19:29;;;;;;;9.10;3.00;;;;;;;26.92;25.63;100807.96;105795;1253;60518;-77
2023/10/19 10:22:14;;;;;;;3.90;2.30;;;;;;;27.02;25.40;100798.60;105872;1253;72988;-77
2023/10/19 10:24:41;;;;;;;5.40;3.00;;;;;;;27.01;25.18;100798.25;105750;1255;64144;-77
2023/10/19 10:27:09;;;;;;;7.60;3.60;;;;;;;26.95;25.51;100797.50;105887;1253;71939;-79
2023/10/19 10:29:37;;;;;;;4.50;2.70;;;;;;;26.87;25.61;100795.88;105750;1252;60936;-77
2023/10/19 10:32:05;;;;;;;4.70;2.60;;;;;;;26.73;25.97;100793.14;105779;1256;60429;-75
2023/10/19 10:34:40;;;;;;;4.80;2.30;;;;;;;26.42;26.47;100789.78;105892;1253;73610;-78
2023/10/19 10:37:10;;;;;;;5.40;2.90;;;;;;;26.13;26.77;100785.38;105808;1253;62936;-77
2023/10/19 10:39:39;;;;;;;2.90;2.20;;;;;;;25.77;27.27;100775.76;105852;1255;72469;-75
2023/10/19 10:42:08;;;;;;;5.60;3.40;;;;;;;25.25;27.92;100772.07;105871;1254;60621;-79
2023/10/19 10:44:41;;;;;;;5.10;2.60;;;;;;;24.79;28.73;100775.00;105669;1255;60349;-77
2023/10/19 10:47:12;;;;;;;;;;;;;;;24.37;29.54;100775.89;105794;1253;73134;-77
2023/10/19 10:49:59;;;;;;;5.70;2.80;;;;;;;23.98;30.23;100772.23;105848;1256;63831;-77
2023/10/19 10:52:36;;;;;;;4.30;2.70;;;;;;;23.51;31.03;100770.00;105758;1255;71901;-77
2023/10/19 10:55:12;;;;;;;4.70;3.10;;;;;;;22.96;32.23;100767.69;105696;1255;60665;-73
2023/10/19 10:57:41;;;;;;;5.70;3.00;;;;;;;22.44;33.33;100769.69;105783;1255;60466;-74
2023/10/19 11:00:15;;;;;;;4.80;3.80;;;;;;;22.02;34.63;100766.95;105771;1256;72471;-75
2023/10/19 11:02:43;;;;;;;4.50;3.20;;;;;;;21.65;34.95;100761.63;105786;1253;62939;-76
2023/10/19 11:05:13;;;;;;;7.10;3.60;;;;;;;21.33;35.69;100759.09;105777;1252;71697;-75
2023/10/19 11:07:41;;;;;;;5.60;3.70;;;;;;;21.02;36.43;100756.92;105807;1255;62004;-73
2023/10/19 11:10:09;;;;;;;9.20;3.00;;;;;;;20.69;37.22;100755.13;105856;1253;60563;-74
2023/10/19 11:12:37;;;;;;;6.70;3.30;;;;;;;20.32;38.07;100752.73;105852;1255;75044;-74
2023/10/19 11:15:09;;;;;;;6.10;3.20;;;;;;;19.98;38.86;100756.91;105770;1253;62980;-76
2023/10/19 11:17:43;;;;;;;7.60;3.30;;;;;;;19.72;39.47;100749.64;105971;1256;74523;-77
2023/10/19 11:20:20;;;;;;;;;;;;;;;19.44;40.44;100749.85;105801;1256;60378;-76
2023/10/19 11:22:52;;;;;;;7.60;4.20;;;;;;;19.23;43.43;100748.17;105623;1252;60524;-74
2023/10/19 11:25:24;;;;;;;9.70;4.20;;;;;;;19.11;45.21;100746.14;105756;1255;74081;-75
2023/10/19 11:27:52;;;;;;;6.60;4.00;;;;;;;19.00;46.27;100745.02;105789;1255;64028;-77
2023/10/19 11:30:29;;;;;;;11.10;3.60;;;;;;;18.89;47.16;100746.02;105679;1253;71568;-75
2023/10/19 11:33:02;;;;;;;6.10;2.90;;;;;;;18.81;48.08;100745.34;105761;1255;60445;-73
2023/10/19 11:35:30;;;;;;;5.60;3.10;;;;;;;18.71;48.86;100743.92;105804;1253;60464;-74
2023/10/19 11:37:59;;;;;;;4.70;2.80;;;;;;;18.57;49.42;100741.88;105725;1255;72503;-78
2023/10/19 11:40:26;;;;;;;6.70;2.50;;;;;;;18.44;50.35;100744.83;105765;1256;63989;-75
2023/10/19 11:42:56;;;;;;;3.60;2.40;;;;;;;18.32;51.39;100746.09;105651;1256;73775;-76
2023/10/19 11:45:26;;;;;;;4.80;3.00;;;;;;;18.22;53.17;100745.19;105672;1256;60565;-74
2023/10/19 11:47:56;;;;;;;5.80;2.90;;;;;;;18.08;54.68;100746.47;105710;1256;60403;-74
2023/10/19 11:50:24;;;;;;;7.80;2.70;;;;;;;17.97;55.72;100740.50;105885;1254;72963;-73
2023/10/19 11:52:52;;;;;;;4.70;3.10;;;;;;;17.91;56.80;100739.37;105864;1256;64008;-76